KLBB/LBB METAR and TAF weather

Enter ICAO airport designator
Station Type Date Time Source
KLBB METAR 2019/08/17 09:53 UTC NOAA

KLBB 170953Z 21008KT 10SM SCT150 27/12 A2990 RMK AO2 SLP060 T02670122


Station Type Date Time Source
KLBB Decoded METAR 2019/08/17 09:53 UTC NOAA

Station name not available
Aug 17, 2019 - 05:53 AM EDT / 2019.08.17 0953 UTC
Wind: from the SSW (210 degrees) at 9 MPH (8 KT):0
Visibility: 10 mile(s):0
Sky conditions: partly cloudy
Temperature: 80.1 F (26.7 C)
Dew Point: 54.0 F (12.2 C)
Relative Humidity: 40%
Pressure (altimeter): 29.9 in. Hg (1012 hPa)
ob: KLBB 170953Z 21008KT 10SM SCT150 27/12 A2990 RMK AO2 SLP060 T02670122
cycle: 10

Station Type Date Time Source
KLBB TAF 2019/08/17 06:22 UTC NOAA

TAF KLBB 170520Z 1706/1806 16009KT P6SM SCT250
FM171500 22015KT P6SM FEW090
FM180200 16011KT P6SM SCT250

Example: see airport list